createdAt,value
2019-02-26T11:17:05.381Z,21.80
2019-02-26T11:19:36.684Z,22.10
2019-02-26T11:22:04.352Z,22.20
2019-02-26T11:24:33.731Z,21.90
2019-02-26T11:27:02.930Z,22.50
2019-02-26T11:29:33.802Z,22.90
2019-02-26T11:32:02.165Z,22.80
2019-02-26T11:34:33.439Z,22.50
2019-02-26T11:37:03.708Z,22.30
2019-02-26T11:39:31.698Z,22.60
2019-02-26T11:42:01.233Z,22.50
2019-02-26T11:44:29.718Z,22.40
2019-02-26T11:46:58.297Z,22.10
2019-02-26T11:49:26.791Z,22.20
2019-02-26T11:51:55.247Z,22.20
2019-02-26T11:54:23.612Z,23.10
2019-02-26T11:56:52.545Z,23.30
2019-02-26T11:59:20.979Z,23.00
2019-02-26T12:01:50.009Z,23.20
2019-02-26T12:04:18.300Z,23.20
2019-02-26T12:06:46.679Z,23.10
2019-02-26T12:09:16.208Z,23.90
2019-02-26T12:11:44.791Z,23.70
2019-02-26T12:14:13.692Z,23.70
2019-02-26T12:16:43.169Z,23.40
2019-02-26T12:19:11.536Z,23.80
2019-02-26T12:21:40.005Z,23.20
2019-02-26T12:24:09.247Z,23.20
2019-02-26T12:26:38.445Z,22.70
2019-02-26T12:29:06.874Z,22.90
2019-02-26T12:31:36.970Z,23.00
2019-02-26T12:34:05.363Z,22.80
2019-02-26T12:36:35.406Z,22.70
2019-02-26T12:39:05.708Z,22.90
2019-02-26T12:41:36.544Z,22.50
2019-02-26T12:44:10.635Z,21.70
2019-02-26T12:46:35.161Z,22.50
2019-02-26T12:49:05.617Z,22.70
2019-02-26T12:51:35.442Z,22.10
2019-02-26T12:54:06.054Z,22.50
2019-02-26T12:56:36.715Z,23.40
2019-02-26T12:59:06.795Z,23.90
2019-02-26T13:01:36.037Z,23.50
2019-02-26T13:04:03.665Z,23.50
2019-02-26T13:06:33.854Z,23.90
2019-02-26T13:09:02.177Z,24.00
2019-02-26T13:11:30.551Z,23.40
2019-02-26T13:14:00.369Z,23.40
2019-02-26T13:16:28.667Z,23.80
2019-02-26T13:19:00.783Z,24.30
2019-02-26T13:21:27.141Z,24.40
2019-02-26T13:23:58.520Z,24.80
2019-02-26T13:26:25.509Z,25.30
2019-02-26T13:28:56.185Z,26.30
2019-02-26T13:31:23.902Z,25.50
2019-02-26T13:33:52.366Z,24.60
2019-02-26T13:36:21.098Z,24.60
2019-02-26T13:38:49.485Z,24.60
2019-02-26T13:41:29.480Z,24.10
2019-02-26T13:43:47.911Z,23.90
2019-02-26T13:46:16.544Z,24.60
2019-02-26T13:48:44.927Z,24.60
2019-02-26T13:51:13.332Z,24.20
2019-02-26T13:53:41.746Z,24.30
2019-02-26T13:56:10.119Z,24.70
2019-02-26T13:58:38.879Z,24.30
2019-02-26T14:01:07.248Z,24.10
2019-02-26T14:03:35.610Z,24.30
2019-02-26T14:06:03.999Z,24.20
2019-02-26T14:08:32.389Z,24.30
2019-02-26T14:11:00.762Z,25.20
2019-02-26T14:13:29.175Z,24.80
2019-02-26T14:15:58.197Z,24.90
2019-02-26T14:18:26.571Z,25.60
2019-02-26T14:20:54.945Z,25.60
2019-02-26T14:23:23.354Z,25.30
2019-02-26T14:25:51.786Z,25.10
2019-02-26T14:28:20.171Z,24.50
2019-02-26T14:30:48.565Z,24.10
2019-02-26T14:33:16.975Z,23.90
2019-02-26T14:35:45.384Z,23.20
2019-02-26T14:38:13.792Z,22.60
2019-02-26T14:40:42.212Z,21.70
2019-02-26T14:43:10.550Z,21.20
2019-02-26T14:45:39.002Z,20.50
2019-02-26T14:48:07.426Z,20.00
2019-02-26T14:50:35.827Z,19.30
2019-02-26T14:53:04.198Z,19.20
2019-02-26T14:55:33.044Z,18.30
2019-02-26T14:58:01.522Z,18.30
2019-02-26T15:00:57.746Z,18.40
2019-02-26T15:03:23.647Z,18.00
2019-02-26T15:05:52.040Z,17.90
2019-02-26T15:08:20.493Z,17.90
2019-02-26T15:10:48.954Z,17.70
2019-02-26T15:13:17.325Z,17.60
2019-02-26T15:15:45.845Z,17.40
2019-02-26T15:18:14.201Z,17.50
2019-02-26T15:20:42.667Z,17.70
2019-02-26T15:23:11.101Z,17.90
2019-02-26T15:25:39.502Z,17.80
2019-02-26T15:28:07.939Z,17.40
2019-02-26T15:30:36.327Z,17.00
2019-02-26T15:33:11.161Z,16.60
2019-02-26T15:35:35.198Z,16.30
2019-02-26T15:38:03.632Z,16.30
2019-02-26T15:40:32.071Z,16.30
2019-02-26T15:43:00.470Z,16.00
2019-02-26T15:45:29.831Z,16.00
2019-02-26T15:47:58.179Z,15.70
2019-02-26T15:50:26.671Z,15.70
2019-02-26T15:52:55.040Z,15.70
2019-02-26T15:55:30.089Z,15.50
2019-02-26T15:58:03.108Z,15.40
2019-02-26T16:00:28.797Z,15.10
2019-02-26T16:02:59.409Z,15.00
2019-02-26T16:05:34.132Z,14.80
2019-02-26T16:08:02.540Z,14.60
2019-02-26T16:10:30.928Z,14.60
2019-02-26T16:13:05.150Z,14.50
2019-02-26T16:15:34.972Z,14.10
2019-02-26T16:18:03.435Z,13.80
2019-02-26T16:20:32.316Z,13.40
2019-02-26T16:23:00.670Z,13.10
2019-02-26T16:25:29.079Z,12.80
2019-02-26T16:27:59.028Z,12.60
2019-02-26T16:30:28.462Z,12.50
2019-02-26T16:32:56.850Z,12.40
2019-02-26T16:35:25.735Z,12.20
2019-02-26T16:37:54.341Z,12.10
2019-02-26T16:40:22.713Z,12.00
2019-02-26T16:42:51.105Z,11.80
2019-02-26T16:45:22.613Z,11.90
2019-02-26T16:47:51.033Z,11.70
2019-02-26T16:50:21.826Z,11.60
2019-02-26T16:52:50.297Z,11.40
2019-02-26T16:55:18.733Z,11.20
2019-02-26T16:57:47.418Z,11.20
2019-02-26T17:00:27.234Z,11.10
2019-02-26T17:02:59.833Z,11.20
2019-02-26T17:05:25.646Z,11.20
2019-02-26T17:07:54.266Z,11.10
2019-02-26T17:10:29.419Z,11.00
2019-02-26T17:12:56.368Z,11.00
2019-02-26T17:15:31.711Z,10.80
2019-02-26T17:18:00.163Z,10.70
2019-02-26T17:20:28.536Z,10.50
2019-02-26T17:22:57.205Z,10.40
2019-02-26T17:25:28.627Z,10.40
2019-02-26T17:27:55.802Z,10.40
2019-02-26T17:30:24.792Z,10.40
2019-02-26T17:32:53.353Z,10.40
2019-02-26T17:35:21.744Z,10.40
2019-02-26T17:37:50.154Z,10.30
2019-02-26T17:40:20.639Z,10.20
2019-02-26T17:42:51.290Z,10.20
2019-02-26T17:45:24.050Z,10.00
2019-02-26T17:47:56.565Z,9.90
2019-02-26T17:50:29.865Z,9.80
2019-02-26T17:52:58.268Z,9.60
2019-02-26T17:55:27.111Z,9.50
2019-02-26T17:57:55.482Z,9.50
2019-02-26T18:00:26.348Z,9.60
2019-02-26T18:02:54.730Z,9.70
2019-02-26T18:05:23.195Z,9.70
2019-02-26T18:07:51.628Z,9.70
2019-02-26T18:10:25.005Z,9.50
2019-02-26T18:12:54.100Z,9.50
2019-02-26T18:15:22.551Z,9.40
2019-02-26T18:17:51.178Z,9.50
2019-02-26T18:20:21.652Z,9.50
2019-02-26T18:22:50.023Z,9.40
2019-02-26T18:25:22.309Z,9.30
2019-02-26T18:27:49.980Z,9.20
2019-02-26T18:30:20.313Z,9.40
2019-02-26T18:32:50.564Z,9.20
2019-02-26T18:35:18.724Z,9.20
2019-02-26T18:37:47.062Z,9.30
2019-02-26T18:40:16.628Z,9.40
2019-02-26T18:42:45.183Z,9.50
2019-02-26T18:45:16.753Z,9.60
2019-02-26T18:47:45.184Z,9.70
2019-02-26T18:50:13.630Z,9.80
2019-02-26T18:52:42.127Z,9.80
2019-02-26T18:55:13.042Z,9.90
2019-02-26T18:57:43.356Z,9.90
2019-02-26T19:00:25.660Z,9.90
2019-02-26T19:02:53.013Z,9.90
2019-02-26T19:05:21.594Z,10.00
2019-02-26T19:07:50.319Z,10.00
2019-02-26T19:10:20.931Z,10.00
2019-02-26T19:12:49.530Z,9.90
2019-02-26T19:15:20.702Z,9.90
2019-02-26T19:17:50.907Z,9.90
2019-02-26T19:20:24.829Z,9.90
2019-02-26T19:22:53.208Z,9.90
2019-02-26T19:25:21.608Z,9.90
2019-02-26T19:27:52.871Z,9.90
2019-02-26T19:30:21.872Z,9.90
2019-02-26T19:32:50.333Z,9.70
2019-02-26T19:35:18.784Z,9.70
2019-02-26T19:37:49.869Z,9.60
2019-02-26T19:40:33.233Z,9.70
2019-02-26T19:43:01.661Z,9.60
2019-02-26T19:45:29.989Z,9.50
2019-02-26T19:47:58.439Z,9.40
2019-02-26T19:50:26.803Z,9.40
2019-02-26T19:52:57.140Z,9.40
2019-02-26T19:55:28.229Z,9.30
2019-02-26T19:57:56.605Z,9.20
2019-02-26T20:00:24.985Z,9.20
2019-02-26T20:02:53.376Z,9.10
2019-02-26T20:05:22.002Z,9.00
2019-02-26T20:07:50.402Z,9.00
2019-02-26T20:10:19.137Z,9.00
2019-02-26T20:12:47.509Z,8.90
2019-02-26T20:15:15.975Z,8.90
2019-02-26T20:17:48.969Z,8.80
2019-02-26T20:20:17.823Z,8.80
2019-02-26T20:22:46.198Z,8.70
2019-02-26T20:25:16.393Z,8.60
2019-02-26T20:27:45.331Z,8.60
2019-02-26T20:30:23.801Z,8.60
2019-02-26T20:32:52.331Z,8.40
2019-02-26T20:35:20.775Z,8.40
2019-02-26T20:37:50.172Z,8.30
2019-02-26T20:40:21.134Z,8.20
2019-02-26T20:42:49.493Z,8.00
2019-02-26T20:45:18.915Z,8.00
2019-02-26T20:47:47.426Z,7.90
2019-02-26T20:50:20.132Z,7.90
2019-02-26T20:52:45.933Z,7.90
2019-02-26T20:55:22.254Z,8.00
2019-02-26T20:57:50.790Z,7.90
2019-02-26T21:00:19.756Z,7.80
2019-02-26T21:02:48.508Z,7.70
2019-02-26T21:05:16.903Z,7.60
2019-02-26T21:07:45.338Z,7.60
2019-02-26T21:10:34.776Z,7.60
2019-02-26T21:13:03.218Z,7.50
2019-02-26T21:15:31.610Z,7.50
2019-02-26T21:18:00.046Z,7.60
2019-02-26T21:20:29.040Z,7.60
2019-02-26T21:22:57.513Z,7.60
2019-02-26T21:25:25.913Z,7.50
2019-02-26T21:27:54.268Z,7.40
2019-02-26T21:30:24.124Z,7.40
2019-02-26T21:32:52.508Z,7.40
2019-02-26T21:35:21.359Z,7.30
2019-02-26T21:37:49.741Z,7.30
2019-02-26T21:40:18.175Z,7.20
2019-02-26T21:42:47.162Z,7.20
2019-02-26T21:45:16.693Z,7.20
2019-02-26T21:47:45.091Z,7.10
2019-02-26T21:50:15.377Z,7.10
2019-02-26T21:52:43.783Z,7.10
2019-02-26T21:55:13.251Z,7.20
2019-02-26T21:57:41.714Z,7.10
2019-02-26T22:00:19.982Z,7.10
2019-02-26T22:02:52.120Z,7.00
2019-02-26T22:05:18.024Z,7.00
2019-02-26T22:07:46.478Z,7.10
2019-02-26T22:10:16.434Z,7.10
2019-02-26T22:12:44.806Z,7.10
2019-02-26T22:15:15.298Z,7.00
2019-02-26T22:17:43.610Z,7.00
2019-02-26T22:20:23.731Z,7.00
2019-02-26T22:22:48.031Z,7.00
2019-02-26T22:25:17.470Z,7.00
2019-02-26T22:27:45.917Z,6.90
2019-02-26T22:30:21.410Z,6.90
2019-02-26T22:32:48.208Z,7.00
2019-02-26T22:35:16.583Z,6.90
2019-02-26T22:37:44.973Z,6.90
2019-02-26T22:40:14.312Z,6.90
2019-02-26T22:42:43.137Z,6.80
2019-02-26T22:45:16.129Z,6.90
2019-02-26T22:47:44.627Z,6.90
2019-02-26T22:50:17.269Z,6.80
2019-02-26T22:52:45.641Z,6.80
2019-02-26T22:55:16.634Z,6.80
2019-02-26T22:57:45.255Z,6.80
2019-02-26T23:00:30.354Z,6.80
2019-02-26T23:02:58.795Z,6.80
2019-02-26T23:05:27.236Z,6.80
2019-02-26T23:07:55.698Z,6.80
2019-02-26T23:10:24.701Z,6.70
2019-02-26T23:12:53.776Z,6.70
2019-02-26T23:15:22.213Z,6.70
2019-02-26T23:17:50.781Z,6.70
2019-02-26T23:20:20.081Z,6.60
2019-02-26T23:22:48.549Z,6.60
2019-02-26T23:25:17.097Z,6.60
2019-02-26T23:27:46.145Z,6.70
2019-02-26T23:30:16.196Z,6.60
2019-02-26T23:32:44.635Z,6.60
2019-02-26T23:35:14.014Z,6.50
2019-02-26T23:37:42.432Z,6.40
2019-02-26T23:40:14.037Z,6.40
2019-02-26T23:42:43.189Z,6.40
2019-02-26T23:45:12.492Z,6.30
2019-02-26T23:47:40.995Z,6.40
2019-02-26T23:50:10.502Z,6.30
2019-02-26T23:52:38.964Z,6.30
2019-02-26T23:55:13.115Z,6.30
2019-02-26T23:57:39.576Z,6.30
